プルコヴォ空港(サンクトペテルブルグ)の過去48時間の天気

プルコヴォ空港(サンクトペテルブルグ) (St. Peterburg)

現在時刻: 7/22 05:21 MSK (7/22 02:21 UTC) 以下の時間は現地時間です。

過去48時間のMETAR気象情報
時間 風向 風速(m/s) 視程 気温(℃) 湿度(%) 気圧(hPa) 天気現象
22 05:00 静穏 0 9000m 12 82 1017
22 04:30 静穏 0 10km以上 12 88 1017
22 04:00 静穏 0 10km以上 12 82 1017
22 03:30 2 10km以上 13 82 1017
22 03:00 東南東 2 10km以上 13 77 1017
22 02:30 東北東 1 10km以上 13 77 1017
22 02:00 静穏 0 10km以上 14 77 1017
22 01:30 不定 1 10km以上 15 72 1017
22 01:00 不定 1 10km以上 15 72 1017
22 00:30 不定 1 10km以上 16 68 1017
22 00:00 静穏 0 10km以上 15 77 1017
21 23:30 静穏 0 9000m 16 68 1017
21 23:00 静穏 0 9000m 17 63 1017
21 22:30 静穏 0 9000m 18 60 1017
21 22:00 2 10km以上 19 56 1017
21 21:30 東南東 2 10km以上 20 49 1017
21 21:00 東南東 2 10km以上 20 53 1017
21 20:30 東南東 3 10km以上 21 49 1017
21 20:00 東南東 4 10km以上 21 49 1017
21 19:30 東南東 3 10km以上 22 50 1017
21 19:00 4 10km以上 23 44 1017
21 18:30 東北東 4 10km以上 23 44 1017
21 18:00 北北東 3 10km以上 24 41 1017
21 17:30 北北西 4 10km以上 24 41 1017
21 17:00 北西 4 10km以上 24 38 1017
21 16:30 北西 4 10km以上 23 38 1017
21 16:00 北西 4 10km以上 24 36 1017
21 15:30 北西 4 10km以上 24 36 1017
21 15:00 西北西 4 10km以上 24 36 1017
21 14:30 西北西 4 10km以上 24 38 1017
21 14:00 西北西 4 10km以上 24 41 1017
21 13:30 西北西 4 10km以上 23 47 1017
21 13:00 西北西 4 10km以上 23 47 1017
21 12:30 北西 4 10km以上 23 41 1017
21 12:00 西北西 4 10km以上 23 47 1017
21 11:30 北西 5 10km以上 22 50 1017
21 11:00 西北西 4 10km以上 22 50 1017
21 10:30 西北西 3 10km以上 21 53 1017
21 10:00 北北西 3 10km以上 21 53 1017
21 09:30 西北西 3 10km以上 20 60 1017
21 09:00 西北西 4 10km以上 19 68 1017
21 08:30 西北西 5 10km以上 18 73 1017
21 08:00 西北西 4 10km以上 18 73 1017
21 07:30 西 3 10km以上 17 83 1017
21 07:00 西北西 2 10km以上 16 82 1017
21 06:30 西 3 10km以上 15 88 1017
21 06:00 西 3 10km以上 15 82 1016
21 05:30 西 3 10km以上 14 88 1016
21 05:00 西 3 10km以上 14 88 1016
21 04:30 西 3 10km以上 14 88 1016
21 04:00 西 3 10km以上 14 88 1016
21 03:30 西 4 10km以上 14 88 1016
21 03:00 西 4 10km以上 14 94 1016 地霧 もや
21 02:30 西 3 9000m 14 88 1016
21 02:00 西 3 9000m 15 88 1016
21 01:30 西 3 9000m 15 88 1016
21 01:00 西 3 9000m 16 82 1016
21 00:30 西 3 9000m 16 88 1015
21 00:00 不定 1 9000m 16 82 1015
20 23:30 静穏 0 9000m 17 77 1015
20 23:00 不定 1 9000m 17 77 1015
20 22:30 西北西 2 10km以上 18 77 1015
ULLI 220200Z 00000MPS 9000 NSC 12/09 Q1017 R10L/090060 NOSIG
ULLI 220130Z 00000MPS CAVOK 12/10 Q1017 R10L/090060 NOSIG
ULLI 220100Z 00000MPS CAVOK 12/09 Q1017 R10L/090060 NOSIG
ULLI 220030Z 10002MPS 060V130 CAVOK 13/10 Q1017 R10L/090060 NOSIG
ULLI 220000Z 11002MPS CAVOK 13/09 Q1017 R10L/090060 NOSIG
ULLI 212330Z 06001MPS CAVOK 13/09 Q1017 R10L/090060 NOSIG
ULLI 212300Z 00000MPS CAVOK 14/10 Q1017 R10L/090060 NOSIG
ULLI 212230Z VRB01MPS CAVOK 15/10 Q1017 R10L/090060 NOSIG
ULLI 212200Z VRB01MPS CAVOK 15/10 Q1017 R10L/090060 NOSIG
ULLI 212130Z VRB01MPS CAVOK 16/10 Q1017 R10L/090060 NOSIG
ULLI 212100Z 00000MPS CAVOK 15/11 Q1017 R10L/090060 NOSIG
ULLI 212030Z 00000MPS 9000 NSC 16/10 Q1017 R10L/090060 NOSIG
ULLI 212000Z 00000MPS 9000 NSC 17/10 Q1017 R10L/090060 NOSIG
ULLI 211930Z 00000MPS 9000 NSC 18/10 Q1017 R10L/090060 NOSIG
ULLI 211900Z 10002MPS CAVOK 19/10 Q1017 R10L/090060 NOSIG
ULLI 211830Z 11002MPS CAVOK 20/09 Q1017 R10L/090060 NOSIG
ULLI 211800Z 11002MPS CAVOK 20/10 Q1017 R10L/090060 NOSIG
ULLI 211730Z 12003MPS CAVOK 21/10 Q1017 R10L/090060 NOSIG
ULLI 211700Z 11004MPS CAVOK 21/10 Q1017 R88/090060 NOSIG
ULLI 211630Z 12003MPS 090V150 CAVOK 22/11 Q1017 R88/090060 NOSIG
ULLI 211600Z 10004MPS 070V130 CAVOK 23/10 Q1017 R88/090060 NOSIG
ULLI 211530Z 07004MPS CAVOK 23/10 Q1017 R88/090060 NOSIG
ULLI 211500Z 02003MPS 330V080 CAVOK 24/10 Q1017 R88/090060 NOSIG
ULLI 211430Z 34004MPS 300V010 CAVOK 24/10 Q1017 R88/090060 NOSIG
ULLI 211400Z 31004MPS 270V340 CAVOK 24/09 Q1017 R88/090060 NOSIG
ULLI 211330Z 32004MPS 280V010 CAVOK 23/08 Q1017 R88/090060 NOSIG
ULLI 211300Z 32004MPS CAVOK 24/08 Q1017 R88/090060 NOSIG
ULLI 211230Z 32004MPS 270V020 CAVOK 24/08 Q1017 R88/090060 NOSIG
ULLI 211200Z 30004MPS 270V350 CAVOK 24/08 Q1017 R88/090060 NOSIG
ULLI 211130Z 30004MPS CAVOK 24/09 Q1017 R88/090060 NOSIG
ULLI 211100Z 29004MPS 260V340 CAVOK 24/10 Q1017 R88/090060 NOSIG
ULLI 211030Z 29004MPS 260V320 CAVOK 23/11 Q1017 R88/090060 NOSIG
ULLI 211000Z 30004MPS 260V330 CAVOK 23/11 Q1017 R88/090060 NOSIG
ULLI 210930Z 32004MPS 290V360 CAVOK 23/09 Q1017 R88/090060 NOSIG
ULLI 210900Z 30004MPS 280V340 CAVOK 23/11 Q1017 R88/090060 NOSIG
ULLI 210830Z 31005MPS 280V340 CAVOK 22/11 Q1017 R88/090060 NOSIG
ULLI 210800Z 30004MPS 270V350 CAVOK 22/11 Q1017 R88/090060 NOSIG
ULLI 210730Z 30003MPS CAVOK 21/11 Q1017 R88/090060 NOSIG
ULLI 210700Z 33003MPS 290V360 CAVOK 21/11 Q1017 R88/090060 NOSIG
ULLI 210630Z 30003MPS CAVOK 20/12 Q1017 R88/090060 NOSIG
ULLI 210600Z 29004MPS CAVOK 19/13 Q1017 R88/090060 NOSIG
ULLI 210530Z 30005MPS CAVOK 18/13 Q1017 R88/090060 NOSIG
ULLI 210500Z 29004MPS CAVOK 18/13 Q1017 R88/090060 NOSIG
ULLI 210430Z 28003MPS CAVOK 17/14 Q1017 R28R/090060 NOSIG
ULLI 210400Z 29002MPS CAVOK 16/13 Q1017 R28R/090060 NOSIG
ULLI 210330Z 27003MPS CAVOK 15/13 Q1017 R28R/090060 NOSIG
ULLI 210300Z 28003MPS CAVOK 15/12 Q1016 R28R/090060 NOSIG
ULLI 210230Z 27003MPS CAVOK 14/12 Q1016 R28R/090060 NOSIG
ULLI 210200Z 28003MPS CAVOK 14/12 Q1016 R28R/090060 NOSIG
ULLI 210130Z 27003MPS CAVOK 14/12 Q1016 R28R/090060 NOSIG
ULLI 210100Z 27003MPS 9999 NSC 14/12 Q1016 R28R/090060 NOSIG
ULLI 210030Z 27004MPS 9999 NSC 14/12 Q1016 R28R/090060 NOSIG
ULLI 210000Z 27004MPS 9999 2800NW MIFG BR NSC 14/13 Q1016 R28R/090060 NOSIG
ULLI 202330Z 28003MPS 9000 NSC 14/12 Q1016 R28R/090060 NOSIG
ULLI 202300Z 28003MPS 9000 NSC 15/13 Q1016 R28R/090060 NOSIG
ULLI 202230Z 28003MPS 9000 NSC 15/13 Q1016 R28R/090060 NOSIG
ULLI 202200Z 28003MPS 9000 NSC 16/13 Q1016 R28R/090060 NOSIG
ULLI 202130Z 27003MPS 9000 NSC 16/14 Q1015 R28R/090060 NOSIG
ULLI 202100Z VRB01MPS 9000 NSC 16/13 Q1015 R28R/090060 NOSIG
ULLI 202030Z 00000MPS 9000 NSC 17/13 Q1015 R28R/090060 NOSIG
ULLI 202000Z VRB01MPS 9000 NSC 17/13 Q1015 R28R/090060 NOSIG
ULLI 201930Z 29002MPS CAVOK 18/14 Q1015 R28R/090060 NOSIG